Time;durP1;ratioP1;P1;durP2;ratioP2;P2;SDS_P1;SDS_P2;PMS_P1;PMS_P2;Temp;Humidity;BMP_temperature;BMP_pressure;BME280_temperature;BME280_humidity;BME280_pressure;Samples;Min_cycle;Max_cycle;Signal;HPM_P1;HPM_P2
2022/07/05 00:02:12;;;;;;;6.70;2.15;;;19.90;73.70;;;;;;5136194;27;20051;-68
2022/07/05 00:04:37;;;;;;;4.78;2.40;;;19.90;73.80;;;;;;5134354;27;20095;-68
2022/07/05 00:07:18;;;;;;;4.35;1.98;;;19.80;73.80;;;;;;5135935;27;20037;-67
2022/07/05 00:09:56;;;;;;;5.57;2.90;;;19.90;73.90;;;;;;5135618;27;20031;-67
2022/07/05 00:12:27;;;;;;;5.95;2.25;;;19.80;73.90;;;;;;5135622;27;20493;-67
2022/07/05 00:14:53;;;;;;;7.03;2.65;;;19.80;74.00;;;;;;5135559;27;20030;-67
2022/07/05 00:17:19;;;;;;;7.25;2.30;;;19.70;73.90;;;;;;5135628;27;20038;-67
2022/07/05 00:19:45;;;;;;;6.50;2.13;;;19.70;74.00;;;;;;5135286;27;20033;-68
2022/07/05 00:22:11;;;;;;;5.75;1.85;;;19.70;74.00;;;;;;5135713;27;20486;-67
2022/07/05 00:24:36;;;;;;;3.25;2.03;;;19.70;74.10;;;;;;5133820;27;20031;-68
2022/07/05 00:27:02;;;;;;;6.72;2.35;;;19.60;74.40;;;;;;5136001;27;20503;-67
2022/07/05 00:29:29;;;;;;;8.25;2.35;;;19.60;74.10;;;;;;5133730;27;20019;-68
2022/07/05 00:31:56;;;;;;;6.82;2.10;;;19.60;74.10;;;;;;5135384;27;20169;-68
2022/07/05 00:34:21;;;;;;;6.70;2.38;;;19.60;74.10;;;;;;5133770;27;20098;-67
2022/07/05 00:36:47;;;;;;;5.57;2.00;;;19.60;74.30;;;;;;5135443;27;20030;-68
2022/07/05 00:39:13;;;;;;;3.35;1.67;;;19.50;74.30;;;;;;5116189;27;20035;-67
2022/07/05 00:41:39;;;;;;;9.05;1.50;;;19.50;74.10;;;;;;5134883;27;20042;-67
2022/07/05 00:44:08;;;;;;;4.47;1.95;;;19.50;73.80;;;;;;5135447;27;20031;-67
2022/07/05 00:46:34;;;;;;;3.45;1.63;;;19.50;74.00;;;;;;5133683;27;20467;-67
2022/07/05 00:49:01;;;;;;;5.43;1.73;;;19.40;73.90;;;;;;5135079;27;20019;-67
2022/07/05 00:51:31;;;;;;;4.55;1.63;;;19.40;74.00;;;;;;5134678;27;20075;-68
2022/07/05 00:53:56;;;;;;;7.57;1.70;;;19.40;74.10;;;;;;5116395;27;20031;-68
2022/07/05 00:56:24;;;;;;;4.53;1.98;;;19.40;73.90;;;;;;5134236;27;20057;-67
2022/07/05 00:58:51;;;;;;;6.05;2.17;;;19.30;74.10;;;;;;5116132;27;20049;-67
2022/07/05 01:01:17;;;;;;;7.18;2.25;;;19.30;74.20;;;;;;5134289;27;20043;-68
2022/07/05 01:03:44;;;;;;;4.80;1.77;;;19.30;74.40;;;;;;5110938;27;20034;-68
2022/07/05 01:06:12;;;;;;;5.30;2.00;;;19.20;74.40;;;;;;5134684;27;20035;-67
2022/07/05 01:08:40;;;;;;;3.17;1.85;;;19.30;74.60;;;;;;5128730;27;20027;-67
2022/07/05 01:11:10;;;;;;;4.35;2.00;;;19.20;74.70;;;;;;5134743;27;20023;-68
2022/07/05 01:13:36;;;;;;;4.35;2.10;;;19.20;74.90;;;;;;5129591;27;20027;-67
2022/07/05 01:16:03;;;;;;;3.60;1.88;;;19.20;75.00;;;;;;5135026;27;20027;-68
2022/07/05 01:18:29;;;;;;;6.15;2.20;;;19.20;75.20;;;;;;5114609;27;20390;-68
2022/07/05 01:20:55;;;;;;;5.18;1.85;;;19.20;75.20;;;;;;5134407;27;20046;-67
2022/07/05 01:23:22;;;;;;;3.40;1.98;;;19.10;75.10;;;;;;5103128;27;20482;-68
2022/07/05 01:25:49;;;;;;;5.53;1.65;;;19.10;75.10;;;;;;5116176;27;20030;-68
2022/07/05 01:28:15;;;;;;;6.70;1.75;;;19.10;75.10;;;;;;5133348;27;20069;-67
2022/07/05 01:30:42;;;;;;;3.88;1.92;;;19.10;75.00;;;;;;5126725;27;20028;-68
2022/07/05 01:33:08;;;;;;;3.97;1.85;;;19.10;75.10;;;;;;5129401;27;20525;-68
2022/07/05 01:35:35;;;;;;;5.53;1.85;;;19.10;75.10;;;;;;5134154;27;20104;-68
2022/07/05 01:38:01;;;;;;;2.90;1.90;;;19.00;75.10;;;;;;5115660;27;20107;-68
2022/07/05 01:40:27;;;;;;;4.03;2.55;;;18.90;75.20;;;;;;5115219;27;20031;-68
2022/07/05 01:42:53;;;;;;;4.45;2.40;;;19.00;75.40;;;;;;5133032;27;20059;-67
2022/07/05 01:48:12;;;;;;;2.90;1.85;;;18.90;75.40;;;;;;5114178;27;20023;-68
2022/07/05 01:50:46;;;;;;;4.38;1.90;;;18.90;75.50;;;;;;5121641;27;20035;-67
2022/07/05 01:53:29;;;;;;;7.05;2.13;;;18.80;75.40;;;;;;5133712;27;20522;-68
2022/07/05 01:56:00;;;;;;;4.18;1.92;;;18.80;75.50;;;;;;5115394;27;20383;-68
2022/07/05 01:58:27;;;;;;;4.32;2.00;;;18.80;75.30;;;;;;5114380;27;20023;-67
2022/07/05 02:00:53;;;;;;;2.72;1.77;;;18.70;75.40;;;;;;5104311;28;20540;-68
2022/07/05 02:03:20;;;;;;;2.60;1.92;;;18.70;75.40;;;;;;5130627;27;20031;-67
2022/07/05 02:05:46;;;;;;;5.35;2.03;;;18.70;75.30;;;;;;5115725;27;20031;-67
2022/07/05 02:08:18;;;;;;;4.55;1.75;;;18.60;75.30;;;;;;5114770;27;20023;-67
2022/07/05 02:10:44;;;;;;;3.85;1.77;;;18.60;75.30;;;;;;5114942;27;20082;-67
2022/07/05 02:13:11;;;;;;;5.28;2.20;;;18.60;75.40;;;;;;5115277;27;20398;-68
2022/07/05 02:15:40;;;;;;;4.15;2.45;;;18.60;75.60;;;;;;5113959;27;20436;-67
2022/07/05 02:18:08;;;;;;;5.63;2.38;;;18.50;75.60;;;;;;5113964;27;20034;-68
2022/07/05 02:20:39;;;;;;;5.65;2.00;;;18.50;75.70;;;;;;5114746;27;20027;-67
2022/07/05 02:23:07;;;;;;;6.70;2.38;;;18.50;75.70;;;;;;5109669;27;20487;-68
2022/07/05 02:25:34;;;;;;;6.05;1.85;;;18.40;75.70;;;;;;5106477;27;20110;-67
2022/07/05 02:28:03;;;;;;;6.97;2.17;;;18.40;75.60;;;;;;5132990;27;20121;-68
2022/07/05 02:30:30;;;;;;;3.65;1.92;;;18.40;75.60;;;;;;5114269;27;20015;-67
2022/07/05 02:32:56;;;;;;;5.15;2.13;;;18.40;75.60;;;;;;5114920;27;20054;-67
2022/07/05 02:35:22;;;;;;;7.43;2.22;;;18.30;75.70;;;;;;5133086;27;20051;-67
2022/07/05 02:37:47;;;;;;;5.35;2.10;;;18.30;75.70;;;;;;5114217;27;20424;-68
2022/07/05 02:40:14;;;;;;;3.83;1.83;;;18.20;75.80;;;;;;5114098;27;20038;-68
2022/07/05 02:42:44;;;;;;;3.10;1.83;;;18.30;76.00;;;;;;5114591;27;20027;-67
2022/07/05 02:45:13;;;;;;;5.20;2.40;;;18.20;76.00;;;;;;5113526;27;20031;-68
2022/07/05 02:47:40;;;;;;;2.92;2.03;;;18.20;76.00;;;;;;5112928;27;20063;-67
2022/07/05 02:50:10;;;;;;;4.40;2.10;;;18.20;76.10;;;;;;5100570;27;20680;-67
2022/07/05 02:52:41;;;;;;;3.83;2.13;;;18.20;76.20;;;;;;5113556;28;20027;-67
2022/07/05 02:55:08;;;;;;;2.95;1.88;;;18.10;76.20;;;;;;5113229;28;20026;-68
2022/07/05 02:57:37;;;;;;;4.57;2.05;;;18.10;76.20;;;;;;5114677;27;20054;-67
2022/07/05 03:00:05;;;;;;;4.43;1.60;;;18.10;76.20;;;;;;5112853;27;20046;-67
2022/07/05 03:02:38;;;;;;;4.47;2.33;;;18.00;75.90;;;;;;5114043;28;20129;-67
2022/07/05 03:05:05;;;;;;;6.28;2.00;;;18.00;76.10;;;;;;5114063;28;20020;-68
2022/07/05 03:07:31;;;;;;;4.97;2.15;;;18.00;76.20;;;;;;5114204;28;20115;-68
2022/07/05 03:09:58;;;;;;;3.78;2.15;;;17.90;76.20;;;;;;5113632;28;20027;-68
2022/07/05 03:12:25;;;;;;;3.67;2.10;;;17.90;76.30;;;;;;5114237;28;20428;-68
2022/07/05 03:14:51;;;;;;;5.45;2.33;;;17.90;76.30;;;;;;5113454;28;20363;-67
2022/07/05 03:17:18;;;;;;;3.40;1.92;;;17.80;76.30;;;;;;5114778;28;20501;-67
2022/07/05 03:19:45;;;;;;;5.93;2.22;;;17.80;76.50;;;;;;5131555;28;20023;-67
2022/07/05 03:22:13;;;;;;;3.53;2.15;;;17.80;76.50;;;;;;5111189;28;20039;-67
2022/07/05 03:24:40;;;;;;;6.10;2.58;;;17.80;76.50;;;;;;5112717;28;20486;-67
2022/07/05 03:27:06;;;;;;;3.58;2.28;;;17.80;76.60;;;;;;5112327;28;20041;-67
2022/07/05 03:29:33;;;;;;;3.72;2.42;;;17.70;76.70;;;;;;5113868;28;20424;-67
2022/07/05 03:31:59;;;;;;;4.07;2.33;;;17.70;76.70;;;;;;5113315;28;20029;-68
2022/07/05 03:34:26;;;;;;;5.05;2.33;;;17.70;76.70;;;;;;5113121;28;20019;-68
2022/07/05 03:36:53;;;;;;;12.40;2.50;;;17.70;76.90;;;;;;5113056;28;20475;-67
2022/07/05 03:39:19;;;;;;;3.80;2.22;;;17.60;76.80;;;;;;5113756;28;20026;-68
2022/07/05 03:41:46;;;;;;;4.40;2.20;;;17.60;76.70;;;;;;5112382;28;20045;-68
2022/07/05 03:44:17;;;;;;;5.93;2.10;;;17.60;76.80;;;;;;5113405;28;20574;-65
2022/07/05 03:46:43;;;;;;;4.38;2.50;;;17.60;77.30;;;;;;5113277;28;20118;-66
2022/07/05 03:49:09;;;;;;;4.80;2.70;;;17.60;76.90;;;;;;5112893;28;20015;-66
2022/07/05 03:51:34;;;;;;;8.82;3.38;;;17.60;77.00;;;;;;5132223;28;20030;-65
2022/07/05 03:54:03;;;;;;;6.90;2.38;;;17.60;77.10;;;;;;5113410;28;20067;-66
2022/07/05 03:56:29;;;;;;;8.02;3.03;;;17.50;77.20;;;;;;5113072;28;20041;-66
2022/07/05 03:58:59;;;;;;;6.00;2.58;;;17.50;77.10;;;;;;5113143;28;20023;-65
2022/07/05 04:01:26;;;;;;;2.92;2.17;;;17.50;77.10;;;;;;5111542;28;20118;-66
2022/07/05 04:03:53;;;;;;;5.15;2.50;;;17.50;77.10;;;;;;5112726;28;20427;-66
2022/07/05 04:06:19;;;;;;;8.85;2.70;;;17.50;77.30;;;;;;5112995;28;20023;-66
2022/07/05 04:08:45;;;;;;;4.30;2.17;;;17.40;77.50;;;;;;5114099;27;20734;-65
2022/07/05 04:11:13;;;;;;;5.18;2.47;;;17.40;77.40;;;;;;5117171;27;20023;-65
2022/07/05 04:13:40;;;;;;;5.53;3.25;;;17.40;77.60;;;;;;5116920;27;20069;-66
2022/07/05 04:16:06;;;;;;;4.75;2.70;;;17.40;77.50;;;;;;5116266;27;20099;-66
2022/07/05 04:18:35;;;;;;;3.28;2.13;;;17.30;77.60;;;;;;5135337;27;20030;-65
2022/07/05 04:21:04;;;;;;;16.33;2.70;;;17.30;77.50;;;;;;5115443;27;20039;-65
2022/07/05 04:23:30;;;;;;;3.90;2.60;;;17.30;77.40;;;;;;5134769;27;20541;-65
2022/07/05 04:25:56;;;;;;;4.57;2.30;;;17.30;77.60;;;;;;5134876;27;20106;-65
2022/07/05 04:28:30;;;;;;;2.38;1.77;;;17.30;77.50;;;;;;5114640;27;20547;-65
2022/07/05 04:30:57;;;;;;;5.35;2.45;;;17.30;77.30;;;;;;5115618;27;20027;-65
2022/07/05 04:33:24;;;;;;;8.80;2.17;;;17.30;77.70;;;;;;5116733;27;20027;-65
2022/07/05 04:35:53;;;;;;;4.30;2.30;;;17.20;78.00;;;;;;5115270;27;20053;-65
2022/07/05 04:38:20;;;;;;;8.70;2.90;;;17.20;78.00;;;;;;5116133;27;20058;-65
2022/07/05 04:40:46;;;;;;;7.68;2.85;;;17.20;78.40;;;;;;5113877;27;20039;-65
2022/07/05 04:43:12;;;;;;;5.45;2.45;;;17.20;79.20;;;;;;5116192;27;20046;-65
2022/07/05 04:45:38;;;;;;;2.97;2.22;;;17.20;78.50;;;;;;5115253;27;20383;-65
2022/07/05 04:48:05;;;;;;;4.28;2.60;;;17.10;78.60;;;;;;5116353;27;20080;-65
2022/07/05 04:50:33;;;;;;;4.18;2.53;;;17.20;78.90;;;;;;5116239;27;20385;-65
2022/07/05 04:52:58;;;;;;;4.18;2.42;;;17.20;79.00;;;;;;5115059;27;20024;-66
2022/07/05 04:55:24;;;;;;;3.33;2.38;;;17.10;78.90;;;;;;5134288;27;20076;-67
2022/07/05 04:57:50;;;;;;;4.10;2.60;;;17.20;79.10;;;;;;5133360;27;20059;-66
2022/07/05 05:00:16;;;;;;;7.25;2.40;;;17.20;79.50;;;;;;5134568;27;20110;-66
2022/07/05 05:02:42;;;;;;;2.95;2.15;;;17.20;79.50;;;;;;5134446;27;20054;-66
2022/07/05 05:05:08;;;;;;;7.53;1.98;;;17.20;79.70;;;;;;5133690;27;20019;-66
2022/07/05 05:07:34;;;;;;;4.50;2.35;;;17.20;79.40;;;;;;5134630;27;20031;-66
2022/07/05 05:10:00;;;;;;;6.65;2.53;;;17.20;79.80;;;;;;5134620;27;20035;-66
2022/07/05 05:12:26;;;;;;;5.60;1.90;;;17.20;80.00;;;;;;5133635;27;20035;-66
2022/07/05 05:14:52;;;;;;;2.55;1.95;;;17.20;79.90;;;;;;5134209;27;20128;-67
2022/07/05 05:17:18;;;;;;;5.68;2.60;;;17.20;80.00;;;;;;5133856;27;20031;-66
2022/07/05 05:19:44;;;;;;;2.47;2.05;;;17.20;80.50;;;;;;5133576;27;20026;-66
2022/07/05 05:22:10;;;;;;;4.07;2.20;;;17.20;80.60;;;;;;5132976;27;20486;-66
2022/07/05 05:24:36;;;;;;;7.70;2.38;;;17.20;80.50;;;;;;5134427;27;20035;-66
2022/07/05 05:27:02;;;;;;;5.07;2.17;;;17.20;80.30;;;;;;5133642;27;20136;-67
2022/07/05 05:29:27;;;;;;;5.93;2.10;;;17.20;80.50;;;;;;5133787;27;20471;-66
2022/07/05 05:31:53;;;;;;;9.10;2.53;;;17.20;80.70;;;;;;5134213;27;20481;-67
2022/07/05 05:34:19;;;;;;;4.90;2.25;;;17.30;81.30;;;;;;5133493;27;20031;-67
2022/07/05 05:36:45;;;;;;;5.63;1.98;;;17.30;81.30;;;;;;5133187;27;20414;-67
2022/07/05 05:39:11;;;;;;;3.80;1.80;;;17.30;81.50;;;;;;5133970;27;20061;-66
2022/07/05 05:41:36;;;;;;;2.40;1.58;;;17.30;81.20;;;;;;5133606;27;20059;-67
2022/07/05 05:44:03;;;;;;;0.40;0.40;;;17.30;81.40;;;;;;5133071;27;20042;-66
2022/07/05 05:46:28;;;;;;;1.70;1.42;;;17.30;81.70;;;;;;5132624;27;20519;-68
2022/07/05 05:48:54;;;;;;;7.18;1.80;;;17.30;81.90;;;;;;5131741;27;20031;-68
2022/07/05 05:51:20;;;;;;;3.80;1.98;;;17.30;81.90;;;;;;5133249;27;20108;-68
2022/07/05 05:53:46;;;;;;;3.35;1.85;;;17.30;83.00;;;;;;5132513;27;20023;-68
2022/07/05 05:56:12;;;;;;;2.15;1.38;;;17.40;83.10;;;;;;5130901;27;20034;-66
2022/07/05 05:58:38;;;;;;;2.45;1.27;;;17.40;82.80;;;;;;5132637;27;20110;-66
2022/07/05 06:01:04;;;;;;;5.35;2.22;;;17.40;82.60;;;;;;5131663;27;20146;-65
2022/07/05 06:03:30;;;;;;;4.05;1.45;;;17.50;84.00;;;;;;5133076;27;20019;-65
2022/07/05 06:05:56;;;;;;;0.20;0.20;;;17.50;83.60;;;;;;5131568;27;20035;-65
2022/07/05 06:08:22;;;;;;;0.90;0.77;;;17.50;83.40;;;;;;5130037;27;20028;-65
2022/07/05 06:10:48;;;;;;;3.92;1.75;;;17.50;83.80;;;;;;5129453;27;20023;-65
2022/07/05 06:13:17;;;;;;;3.63;1.48;;;17.50;84.90;;;;;;5130864;27;20442;-65
2022/07/05 06:15:43;;;;;;;2.60;0.98;;;17.50;84.90;;;;;;5130483;27;20363;-66
2022/07/05 06:18:10;;;;;;;0.90;0.80;;;17.60;85.10;;;;;;5132998;27;20136;-66
2022/07/05 06:20:37;;;;;;;2.30;1.02;;;17.50;84.90;;;;;;5133457;27;20023;-66
2022/07/05 06:23:04;;;;;;;3.92;1.40;;;17.60;85.00;;;;;;5124103;27;20035;-67
2022/07/05 06:25:31;;;;;;;9.15;1.35;;;17.50;85.40;;;;;;5132062;27;20092;-69
2022/07/05 06:27:59;;;;;;;2.13;1.15;;;17.60;85.60;;;;;;5131698;27;20034;-69
2022/07/05 06:30:27;;;;;;;1.10;0.88;;;17.60;85.70;;;;;;5132343;27;20035;-67
2022/07/05 06:32:54;;;;;;;4.25;1.48;;;17.70;86.10;;;;;;5132191;27;20049;-67
2022/07/05 06:35:20;;;;;;;3.63;1.30;;;17.70;86.40;;;;;;5133226;27;20050;-68
2022/07/05 06:37:54;;;;;;;1.05;0.70;;;17.70;86.60;;;;;;5131982;27;20398;-66
2022/07/05 06:40:24;;;;;;;0.60;0.60;;;17.70;86.90;;;;;;5131980;27;20031;-66
2022/07/05 06:42:54;;;;;;;1.10;0.85;;;17.70;87.10;;;;;;5132184;27;20035;-66
2022/07/05 06:45:24;;;;;;;0.68;0.57;;;17.80;87.50;;;;;;5113002;27;20094;-66
2022/07/05 06:48:04;;;;;;;4.63;0.77;;;17.70;87.80;;;;;;5132790;27;20111;-66
2022/07/05 06:50:32;;;;;;;1.95;0.90;;;17.80;88.20;;;;;;5131801;27;20359;-66
2022/07/05 06:52:58;;;;;;;1.30;0.90;;;17.80;88.30;;;;;;5132772;27;20404;-66
2022/07/05 06:55:25;;;;;;;4.25;1.88;;;17.80;88.80;;;;;;5132335;27;20023;-66
2022/07/05 06:58:02;;;;;;;0.80;0.80;;;17.80;89.00;;;;;;5131076;27;20023;-66
2022/07/05 07:00:28;;;;;;;0.32;0.32;;;17.80;88.90;;;;;;5132301;27;20028;-66
2022/07/05 07:02:54;;;;;;;2.28;0.50;;;17.80;88.90;;;;;;5132019;27;20043;-66
2022/07/05 07:05:20;;;;;;;1.27;0.52;;;17.80;88.90;;;;;;5131496;28;20034;-66
2022/07/05 07:10:30;;;;;;;0.65;0.45;;;17.90;89.20;;;;;;5131507;28;20020;-66
2022/07/05 07:12:57;;;;;;;2.20;0.70;;;17.90;89.20;;;;;;5130038;28;20058;-66
2022/07/05 07:15:23;;;;;;;1.23;0.93;;;17.90;89.40;;;;;;5125804;28;20094;-66
2022/07/05 07:17:49;;;;;;;2.80;0.90;;;18.00;89.60;;;;;;5131488;28;20426;-66
2022/07/05 07:20:15;;;;;;;1.15;0.52;;;18.00;89.00;;;;;;5130967;28;20428;-66
2022/07/05 07:22:41;;;;;;;2.58;0.73;;;18.00;88.70;;;;;;5129797;28;20448;-66
2022/07/05 07:25:08;;;;;;;3.50;0.60;;;18.10;88.50;;;;;;5130516;28;20025;-66
2022/07/05 07:27:44;;;;;;;0.82;0.70;;;18.10;88.40;;;;;;5131632;28;20027;-71
2022/07/05 07:30:13;;;;;;;0.52;0.40;;;18.10;88.20;;;;;;5129915;28;20496;-68
2022/07/05 07:32:39;;;;;;;1.50;0.73;;;18.20;88.10;;;;;;5130024;28;20470;-67
2022/07/05 07:35:07;;;;;;;1.45;0.50;;;18.20;87.90;;;;;;5131224;28;20051;-68
2022/07/05 07:37:32;;;;;;;2.53;0.82;;;18.20;87.90;;;;;;5129657;28;20019;-69
2022/07/05 07:39:58;;;;;;;1.55;0.45;;;18.30;88.00;;;;;;5129716;28;20105;-69
2022/07/05 07:42:24;;;;;;;3.70;1.92;;;18.30;87.90;;;;;;5130372;27;20549;-69
2022/07/05 07:44:50;;;;;;;1.92;0.73;;;18.40;87.90;;;;;;5133985;27;20356;-69
2022/07/05 07:47:16;;;;;;;2.22;1.05;;;18.40;87.70;;;;;;5133993;27;20042;-69
2022/07/05 07:49:44;;;;;;;1.42;0.73;;;18.50;87.50;;;;;;5135052;27;20019;-69
2022/07/05 07:52:10;;;;;;;2.30;1.10;;;18.50;87.50;;;;;;5134174;27;20113;-69
2022/07/05 07:54:35;;;;;;;0.98;0.50;;;18.50;87.50;;;;;;5134276;27;20020;-69
2022/07/05 07:57:04;;;;;;;5.65;1.85;;;18.60;87.50;;;;;;5133952;27;20070;-69
2022/07/05 07:59:30;;;;;;;4.70;1.77;;;18.60;87.40;;;;;;5133553;27;20493;-69
2022/07/05 08:01:56;;;;;;;3.70;1.23;;;18.60;87.30;;;;;;5133580;27;20073;-69
2022/07/05 08:04:22;;;;;;;2.25;1.33;;;18.60;87.40;;;;;;5134469;27;20027;-68
2022/07/05 08:06:47;;;;;;;0.30;0.30;;;18.60;87.10;;;;;;5134725;27;20050;-69
2022/07/05 08:09:14;;;;;;;1.48;0.70;;;18.70;87.00;;;;;;5128867;27;20130;-69
2022/07/05 08:11:44;;;;;;;8.10;0.90;;;18.70;87.00;;;;;;5134632;27;20026;-68
2022/07/05 08:14:12;;;;;;;0.45;0.45;;;18.70;86.80;;;;;;5133548;27;20031;-68
2022/07/05 08:16:38;;;;;;;3.10;0.65;;;18.80;86.60;;;;;;5134511;27;20019;-68
2022/07/05 08:21:49;;;;;;;2.60;0.68;;;18.90;86.60;;;;;;5132608;27;20039;-68
2022/07/05 08:24:15;;;;;;;0.50;0.50;;;18.90;85.50;;;;;;5134440;27;20466;-69
2022/07/05 08:26:46;;;;;;;17.70;1.00;;;18.90;84.30;;;;;;5130213;27;20113;-68
2022/07/05 08:29:13;;;;;;;0.47;0.47;;;18.90;84.40;;;;;;5133774;27;20110;-69
2022/07/05 08:31:40;;;;;;;0.52;0.52;;;18.90;84.40;;;;;;5135336;27;20046;-67
2022/07/05 08:34:06;;;;;;;1.02;0.80;;;19.00;84.00;;;;;;5130663;27;20132;-68
2022/07/05 08:36:32;;;;;;;1.55;0.70;;;19.00;83.30;;;;;;5128282;27;20095;-68
2022/07/05 08:39:00;;;;;;;1.65;0.47;;;19.00;82.90;;;;;;5133495;27;20476;-68
2022/07/05 08:41:26;;;;;;;0.60;0.60;;;19.00;82.60;;;;;;5133206;27;20135;-68
2022/07/05 08:43:52;;;;;;;0.40;0.40;;;19.10;82.60;;;;;;5133566;27;20064;-68
2022/07/05 08:46:19;;;;;;;2.00;0.77;;;19.10;82.70;;;;;;5133176;27;20042;-67
2022/07/05 08:48:51;;;;;;;3.78;0.68;;;19.20;82.70;;;;;;5133534;27;20057;-67
2022/07/05 08:51:21;;;;;;;1.30;0.68;;;19.20;82.80;;;;;;5124922;27;20394;-67
2022/07/05 08:53:48;;;;;;;3.13;1.23;;;19.30;83.10;;;;;;5132829;27;20019;-67
2022/07/05 08:56:14;;;;;;;8.40;0.90;;;19.30;83.40;;;;;;5132584;27;20455;-67
2022/07/05 08:58:41;;;;;;;0.40;0.40;;;19.30;83.70;;;;;;5133560;27;20031;-67
2022/07/05 09:01:08;;;;;;;6.43;1.77;;;19.30;83.80;;;;;;5132931;27;20043;-67
2022/07/05 09:03:46;;;;;;;7.28;1.05;;;19.30;83.80;;;;;;5134316;27;20122;-67
2022/07/05 09:06:16;;;;;;;0.63;0.50;;;19.40;84.10;;;;;;5132168;27;20080;-67
2022/07/05 09:08:43;;;;;;;0.40;0.30;;;19.40;84.00;;;;;;5133483;27;20391;-67
2022/07/05 09:11:11;;;;;;;2.33;1.13;;;19.50;84.70;;;;;;5132128;27;20038;-67
2022/07/05 09:13:39;;;;;;;3.95;0.95;;;19.50;84.00;;;;;;5133079;27;20098;-67
2022/07/05 09:16:05;;;;;;;5.38;0.73;;;19.60;84.00;;;;;;5133106;27;20069;-67
2022/07/05 09:18:42;;;;;;;1.20;0.50;;;19.60;83.80;;;;;;5131895;27;20023;-67
2022/07/05 09:21:20;;;;;;;8.48;1.10;;;19.70;83.60;;;;;;5130899;27;20071;-67
2022/07/05 09:23:55;;;;;;;5.68;0.95;;;19.70;83.40;;;;;;5128929;27;20031;-67
2022/07/05 09:26:26;;;;;;;5.60;1.02;;;19.70;83.70;;;;;;5132863;27;20049;-67
2022/07/05 09:28:57;;;;;;;4.05;1.35;;;19.80;83.70;;;;;;5133341;27;20025;-67
2022/07/05 09:31:28;;;;;;;1.27;0.68;;;19.90;83.80;;;;;;5126417;27;20031;-67
2022/07/05 09:33:53;;;;;;;0.85;0.55;;;20.00;83.30;;;;;;5131681;27;20023;-69
2022/07/05 09:36:19;;;;;;;7.00;1.40;;;20.00;82.90;;;;;;5133419;27;20023;-68
2022/07/05 09:38:51;;;;;;;5.60;1.20;;;20.00;82.90;;;;;;5132565;27;20035;-68
2022/07/05 09:41:17;;;;;;;0.40;0.40;;;20.10;83.10;;;;;;5132158;27;20085;-68
2022/07/05 09:43:43;;;;;;;0.75;0.75;;;20.10;83.00;;;;;;5131753;27;20039;-68
2022/07/05 09:46:09;;;;;;;5.50;0.95;;;20.10;82.90;;;;;;5132063;27;20539;-69
2022/07/05 09:48:35;;;;;;;3.22;1.00;;;20.20;83.00;;;;;;5132813;27;20027;-68
2022/07/05 09:51:11;;;;;;;2.38;0.70;;;20.20;83.20;;;;;;5131165;27;20526;-68
2022/07/05 09:53:51;;;;;;;3.35;0.90;;;20.20;83.90;;;;;;5131757;27;20485;-69
2022/07/05 09:56:18;;;;;;;2.83;1.30;;;20.20;83.40;;;;;;5123888;27;20073;-68
2022/07/05 09:58:44;;;;;;;0.43;0.40;;;20.30;83.50;;;;;;5132411;27;20083;-69
2022/07/05 10:01:26;;;;;;;4.22;0.80;;;20.30;83.40;;;;;;5130046;27;20096;-69
2022/07/05 10:03:58;;;;;;;2.55;1.23;;;20.30;83.10;;;;;;5129063;27;20478;-68
2022/07/05 10:06:25;;;;;;;1.88;0.73;;;20.30;83.00;;;;;;5131563;27;20055;-68
2022/07/05 10:08:55;;;;;;;2.50;0.57;;;20.40;82.80;;;;;;5129751;27;20042;-69
2022/07/05 10:11:22;;;;;;;1.30;0.60;;;20.40;82.80;;;;;;5131283;27;20077;-69
2022/07/05 10:13:50;;;;;;;1.15;0.60;;;20.50;82.70;;;;;;5132241;27;20058;-69
2022/07/05 10:16:20;;;;;;;0.65;0.55;;;20.50;82.40;;;;;;5130983;27;20074;-68
2022/07/05 10:18:49;;;;;;;0.40;0.40;;;20.50;81.50;;;;;;5128018;27;20152;-69
2022/07/05 10:21:17;;;;;;;3.03;0.65;;;20.50;81.30;;;;;;5130172;27;20092;-68
2022/07/05 10:23:47;;;;;;;2.78;1.17;;;20.50;81.00;;;;;;5132145;27;20458;-69
2022/07/05 10:26:15;;;;;;;3.38;0.85;;;20.60;81.00;;;;;;5130246;27;20027;-69
2022/07/05 10:28:49;;;;;;;6.22;1.13;;;20.50;81.10;;;;;;5130099;27;20023;-69
2022/07/05 10:31:16;;;;;;;2.92;0.98;;;20.60;81.20;;;;;;5130632;27;20038;-68
2022/07/05 10:33:43;;;;;;;3.53;0.95;;;20.60;81.30;;;;;;5131824;27;20451;-68
2022/07/05 10:36:13;;;;;;;5.55;0.90;;;20.60;81.60;;;;;;5129824;27;20034;-68
2022/07/05 10:38:45;;;;;;;4.25;0.80;;;20.70;82.00;;;;;;5131884;27;20023;-68
2022/07/05 10:41:39;;;;;;;1.45;0.50;;;20.70;81.70;;;;;;5127529;27;20083;-68
2022/07/05 10:44:03;;;;;;;2.47;0.60;;;20.80;81.60;;;;;;5127127;27;20039;-68
2022/07/05 10:46:41;;;;;;;4.82;1.05;;;20.80;81.00;;;;;;5127795;27;20075;-68
2022/07/05 10:49:19;;;;;;;3.78;0.93;;;20.90;81.00;;;;;;5129459;27;20023;-69
2022/07/05 10:51:46;;;;;;;3.78;0.70;;;20.90;81.00;;;;;;5130327;27;20489;-69
2022/07/05 10:54:12;;;;;;;4.10;0.75;;;21.00;81.00;;;;;;5130277;27;20550;-69
2022/07/05 10:56:39;;;;;;;3.25;0.90;;;21.00;80.70;;;;;;5130750;27;20023;-68
2022/07/05 10:59:11;;;;;;;5.40;1.20;;;21.10;80.40;;;;;;5131818;27;20062;-68
2022/07/05 11:01:41;;;;;;;4.07;0.82;;;21.10;79.70;;;;;;5128286;27;20047;-68
2022/07/05 11:04:20;;;;;;;5.88;1.33;;;21.20;80.20;;;;;;5129577;27;20051;-67
2022/07/05 11:06:46;;;;;;;14.32;1.90;;;21.20;80.30;;;;;;5129241;28;20382;-68
2022/07/05 11:09:11;;;;;;;4.55;1.23;;;21.20;80.40;;;;;;5130980;28;20027;-68
2022/07/05 11:11:42;;;;;;;6.20;1.67;;;21.30;80.40;;;;;;5129110;28;20019;-68
2022/07/05 11:14:20;;;;;;;3.00;1.00;;;21.30;80.00;;;;;;5127852;28;20035;-68
2022/07/05 11:16:47;;;;;;;1.73;1.00;;;21.40;80.50;;;;;;5127688;27;20526;-68
2022/07/05 11:19:21;;;;;;;9.80;1.50;;;21.30;80.60;;;;;;5130937;27;20055;-68
2022/07/05 11:22:08;;;;;;;2.63;1.02;;;21.50;80.70;;;;;;5131789;27;20150;-68
2022/07/05 11:24:36;;;;;;;7.85;1.15;;;21.50;80.50;;;;;;5132691;27;20019;-68
2022/07/05 11:27:04;;;;;;;5.70;1.25;;;21.50;80.20;;;;;;5125530;27;20056;-68
2022/07/05 11:29:44;;;;;;;6.15;1.50;;;21.50;80.50;;;;;;5133764;27;20076;-68
2022/07/05 11:32:14;;;;;;;6.00;1.10;;;21.50;80.60;;;;;;5133255;27;20019;-68
2022/07/05 11:34:41;;;;;;;8.25;1.63;;;21.50;80.30;;;;;;5136123;27;20347;-68
2022/07/05 11:37:34;;;;;;;4.10;1.17;;;21.50;80.40;;;;;;5134940;27;20040;-68
2022/07/05 11:40:09;;;;;;;4.18;1.25;;;21.60;80.50;;;;;;5133094;27;20050;-68
2022/07/05 11:42:49;;;;;;;6.32;1.27;;;21.50;80.00;;;;;;5131675;27;20054;-68
2022/07/05 11:45:16;;;;;;;4.65;1.00;;;21.60;80.10;;;;;;5133286;27;20129;-68
2022/07/05 11:47:43;;;;;;;1.48;0.90;;;21.60;79.80;;;;;;5131741;27;20023;-68
2022/07/05 11:50:10;;;;;;;7.00;2.03;;;21.60;79.60;;;;;;5134646;27;20031;-68
2022/07/05 11:52:37;;;;;;;4.65;1.08;;;21.60;78.40;;;;;;5131431;27;20493;-68
2022/07/05 11:55:08;;;;;;;7.47;1.33;;;21.70;78.40;;;;;;5131633;27;20054;-68
2022/07/05 11:57:37;;;;;;;4.50;1.05;;;21.70;78.60;;;;;;5134269;27;20049;-68
2022/07/05 12:00:04;;;;;;;5.68;1.40;;;21.60;78.80;;;;;;5134158;27;20031;-68
2022/07/05 12:02:43;;;;;;;9.57;1.38;;;21.70;79.10;;;;;;5133357;27;20046;-68
2022/07/05 12:05:09;;;;;;;5.30;1.42;;;21.70;79.40;;;;;;5134154;27;20034;-68
2022/07/05 12:07:35;;;;;;;10.30;1.42;;;21.70;79.20;;;;;;5133768;27;20030;-70
2022/07/05 12:12:51;;;;;;;4.20;0.80;;;21.80;78.80;;;;;;5130683;27;20418;-71
2022/07/05 12:15:20;;;;;;;8.18;1.30;;;21.70;78.20;;;;;;5130973;27;20026;-69
2022/07/05 12:17:51;;;;;;;4.95;1.00;;;21.80;78.40;;;;;;5126517;27;20030;-69
2022/07/05 12:20:24;;;;;;;3.05;1.17;;;21.70;78.00;;;;;;5131908;27;20071;-69
2022/07/05 12:22:50;;;;;;;4.18;0.95;;;21.70;77.40;;;;;;5128810;27;20050;-68
2022/07/05 12:25:18;;;;;;;4.90;0.98;;;21.70;77.50;;;;;;5132237;27;20039;-69
2022/07/05 12:27:47;;;;;;;3.35;1.00;;;21.80;78.00;;;;;;5130619;27;20050;-70
2022/07/05 12:30:13;;;;;;;3.22;1.20;;;21.70;77.30;;;;;;5131460;27;20034;-68
2022/07/05 12:33:06;;;;;;;3.03;0.80;;;21.70;76.40;;;;;;5131348;27;20109;-67
2022/07/05 12:35:45;;;;;;;1.52;0.80;;;21.70;76.40;;;;;;5130571;27;20523;-67
2022/07/05 12:38:18;;;;;;;1.10;0.65;;;21.70;76.00;;;;;;5132267;27;20078;-67
2022/07/05 12:40:49;;;;;;;5.85;1.08;;;21.70;75.50;;;;;;5133450;27;20027;-68
2022/07/05 12:43:19;;;;;;;2.20;1.02;;;21.70;75.40;;;;;;5133033;27;20023;-68
2022/07/05 12:46:07;;;;;;;4.32;1.05;;;21.70;74.80;;;;;;5130624;27;20055;-67
2022/07/05 12:48:35;;;;;;;3.05;1.10;;;21.70;75.40;;;;;;5132538;27;20078;-68
2022/07/05 12:51:02;;;;;;;4.32;1.00;;;21.70;75.60;;;;;;5131384;27;20027;-67
2022/07/05 12:59:07;;;;;;;2.38;0.80;;;21.70;76.10;;;;;;5133230;27;20023;-67
2022/07/05 13:01:37;;;;;;;2.28;0.98;;;21.70;75.60;;;;;;5129826;27;20053;-67
2022/07/05 13:04:16;;;;;;;3.80;0.90;;;21.70;75.40;;;;;;5132337;27;20031;-67
2022/07/05 13:06:55;;;;;;;3.85;1.00;;;21.70;75.60;;;;;;5132456;27;20023;-67
2022/07/05 13:09:33;;;;;;;3.28;1.00;;;21.70;75.60;;;;;;5132703;27;20024;-67